Altamonte Springs, FL

3:28 PM EST on February 28, 2015 (GMT -0500)
Kissimmee Municipal | Change Station
CLOSE
Current Station
Airport
Location: Kissimmee,
Elevation: 82 ft
Nearby Weather Stations

Elev 82 ft 28.29 °N, 81.44 °W | Updated 38 minutes ago

Overcast
Overcast
66 °F
Feels Like 66 °F
N
13
Wind Variable Wind from ENE

Today
High -- | Low -- °F
--% Chance of Precip.
Yesterday
High -- | Low -- °F
Precip. -- in
6:51 AM 6:24 PM
Waxing Gibbous, 80% visible
Pressure 30.30 in
Visibility 3.0 miles
Clouds Overcast 800 ft
Dew Point 66 °F
Humidity 100%
Rainfall 0.00 in
Snow Depth Not available.
UV 2 out of 12
Pollen 10.40 out of 12
Air Quality Not available.
Flu Activity Not available.
METAR KISM 281950Z 07011KT 3SM RABR OVC008 19/19 A3030

More Conditions Fewer Conditions

Pressure 30.30 in
Visibility 3.0 miles
Clouds Overcast 800 ft
Dew Point 66 °F
Humidity 100%
Rainfall 0.00 in
Snow Depth Not available.
UV 2 out of 12
Pollen 10.40 out of 12
Air Quality Not available.
Flu Activity Not available.
METAR KISM 281950Z 07011KT 3SM RABR OVC008 19/19 A3030

More Conditions Fewer Conditions

Nowcast | as of 1:30 PM EST on February 28, 2015

Light to moderate rain will continue to stream northeastward across locations north of a line from Lake Kissimmee to Melbourne while additional areas of light rain and showers will continue to move onshore or linger from Melbourne southward through mid afternoon. Isolated storms will be possible across Martin County and into the Kissimmee area...producing occasional cloud to ground lightning. While heavier rain is ending along Saint Lucie and Martin counties... flooding of area roadways where excessive rainfall occurred earlier today will be slow to subside. Cloud cover will likely hold temperatures over much of the region in the 60s with low 70s across Okeechobee County and the Treasure Coast where some breaks in the clouds may occur. Additional details...including graphics are available online at: http://www.Srh.NOAA.Gov/mlb/blog.Php

×

10-Day Weather Forecast

Almanac

Astronomy

Feb. 28, 2015 Rise Set
Actual Time
Civil Twilight
Nautical Twilight
Astronomical Twilight
Moon
Length of Visible Light
Length of Day
Tomorrow will be .
, % of the Moon is Illuminated

Today's Extremes

State Highs State Lows

Community

WunderPhotos

Upload Photos

1,801,135 photos uploaded!

WunderBlogs® & News

Nearby

Air Quality

  Air Quality AQ Index Pollutant
Not available.

Snow Depth

Station Depth Elevation

Earthquake Activity

City Distance Mag. Time & Date
Minimum magnitude displayed is 2.5.

Coastal Water Temperatures

Place Temperature

Nearby Weather Stations